< < Back
Terminal Aerodrome Forecast


Current Version              Previous Versions:   1  2  3  4  5  6  7  8  9  

Terminal Aerodrome Forecast

272
FTUS44 KMRX 022325
TAFTYS
TAF
KTYS 022325Z 0300/0324 23010KT P6SM VCSH SCT020 BKN100
     FM030300 22008KT P6SM VCTS BKN035CB OVC080
     FM030600 23008KT 6SM -SHRA BR VCTS SCT010 BKN020CB
     FM031600 23010KT P6SM VCTS SCT015CB BKN035
     FM032100 23013G30KT P6SM VCSH SCT025 BKN045=



Latest METAR

167
SAUS80 KWBC 040500 RRB
MTRTYS
METAR KTYS 040453Z 21012KT 10SM SCT070 BKN110 22/18 A2997 RMK AO2
RAB01E19 SLP140 P0000 T02170183 402560200 $


USA.gov is the U.S. government's official web portal to all federal, state and local government web resources and services.